sensor_id;sensor_type;location;lat;lon;timestamp;P1;durP1;ratioP1;P2;durP2;ratioP2
830;SDS011;397;50.564;7.272;2023-01-08T00:01:05;3.00;;;2.27;;
830;SDS011;397;50.564;7.272;2023-01-08T00:03:34;3.07;;;1.80;;
830;SDS011;397;50.564;7.272;2023-01-08T00:06:03;3.80;;;2.23;;
830;SDS011;397;50.564;7.272;2023-01-08T00:08:32;3.13;;;2.27;;
830;SDS011;397;50.564;7.272;2023-01-08T00:11:02;3.70;;;2.43;;
830;SDS011;397;50.564;7.272;2023-01-08T00:13:29;2.80;;;2.10;;
830;SDS011;397;50.564;7.272;2023-01-08T00:16:00;2.87;;;2.10;;
830;SDS011;397;50.564;7.272;2023-01-08T00:18:29;3.10;;;2.63;;
830;SDS011;397;50.564;7.272;2023-01-08T00:20:58;2.77;;;2.40;;
830;SDS011;397;50.564;7.272;2023-01-08T00:23:25;3.60;;;2.10;;
830;SDS011;397;50.564;7.272;2023-01-08T00:25:54;3.43;;;2.10;;
830;SDS011;397;50.564;7.272;2023-01-08T00:28:22;3.30;;;2.13;;
830;SDS011;397;50.564;7.272;2023-01-08T00:30:50;3.07;;;2.40;;
830;SDS011;397;50.564;7.272;2023-01-08T00:33:17;3.20;;;2.37;;
830;SDS011;397;50.564;7.272;2023-01-08T00:35:45;2.97;;;2.20;;
830;SDS011;397;50.564;7.272;2023-01-08T00:38:12;3.00;;;2.37;;
830;SDS011;397;50.564;7.272;2023-01-08T00:40:40;3.30;;;2.20;;
830;SDS011;397;50.564;7.272;2023-01-08T00:43:07;2.50;;;1.93;;
830;SDS011;397;50.564;7.272;2023-01-08T00:45:35;3.10;;;2.40;;
830;SDS011;397;50.564;7.272;2023-01-08T00:48:03;3.73;;;3.10;;
830;SDS011;397;50.564;7.272;2023-01-08T00:50:30;3.87;;;2.90;;
830;SDS011;397;50.564;7.272;2023-01-08T00:52:58;3.87;;;2.53;;
830;SDS011;397;50.564;7.272;2023-01-08T00:55:25;3.80;;;2.63;;
830;SDS011;397;50.564;7.272;2023-01-08T00:57:53;3.23;;;2.57;;
830;SDS011;397;50.564;7.272;2023-01-08T01:00:23;5.17;;;3.10;;
830;SDS011;397;50.564;7.272;2023-01-08T01:02:50;3.90;;;2.73;;
830;SDS011;397;50.564;7.272;2023-01-08T01:05:18;4.13;;;2.67;;
830;SDS011;397;50.564;7.272;2023-01-08T01:07:45;3.63;;;2.80;;
830;SDS011;397;50.564;7.272;2023-01-08T01:10:13;3.07;;;2.60;;
830;SDS011;397;50.564;7.272;2023-01-08T01:12:42;3.90;;;3.03;;
830;SDS011;397;50.564;7.272;2023-01-08T01:15:11;3.50;;;2.90;;
830;SDS011;397;50.564;7.272;2023-01-08T01:17:40;4.87;;;2.90;;
830;SDS011;397;50.564;7.272;2023-01-08T01:20:09;4.20;;;2.93;;
830;SDS011;397;50.564;7.272;2023-01-08T01:22:39;4.30;;;3.33;;
830;SDS011;397;50.564;7.272;2023-01-08T01:25:08;4.50;;;3.10;;
830;SDS011;397;50.564;7.272;2023-01-08T01:27:36;4.33;;;3.20;;
830;SDS011;397;50.564;7.272;2023-01-08T01:30:03;4.50;;;3.50;;
830;SDS011;397;50.564;7.272;2023-01-08T01:32:32;3.90;;;3.47;;
830;SDS011;397;50.564;7.272;2023-01-08T01:35:01;4.70;;;3.37;;
830;SDS011;397;50.564;7.272;2023-01-08T01:37:29;5.60;;;3.57;;
830;SDS011;397;50.564;7.272;2023-01-08T01:39:56;5.27;;;3.37;;
830;SDS011;397;50.564;7.272;2023-01-08T01:42:24;4.40;;;3.40;;
830;SDS011;397;50.564;7.272;2023-01-08T01:45:24;4.70;;;2.97;;
830;SDS011;397;50.564;7.272;2023-01-08T01:47:54;3.90;;;3.47;;
830;SDS011;397;50.564;7.272;2023-01-08T01:50:28;4.30;;;3.47;;
830;SDS011;397;50.564;7.272;2023-01-08T01:53:26;5.63;;;3.07;;
830;SDS011;397;50.564;7.272;2023-01-08T01:55:34;3.70;;;2.93;;
830;SDS011;397;50.564;7.272;2023-01-08T01:58:07;4.50;;;3.50;;
830;SDS011;397;50.564;7.272;2023-01-08T02:00:40;3.20;;;2.90;;
830;SDS011;397;50.564;7.272;2023-01-08T02:03:09;5.80;;;3.70;;
830;SDS011;397;50.564;7.272;2023-01-08T02:05:45;5.10;;;3.20;;
830;SDS011;397;50.564;7.272;2023-01-08T02:11:05;4.27;;;3.87;;
830;SDS011;397;50.564;7.272;2023-01-08T02:13:35;5.40;;;3.27;;
830;SDS011;397;50.564;7.272;2023-01-08T02:16:07;4.10;;;3.17;;
830;SDS011;397;50.564;7.272;2023-01-08T02:19:06;6.50;;;2.83;;
830;SDS011;397;50.564;7.272;2023-01-08T02:21:23;3.43;;;2.90;;
830;SDS011;397;50.564;7.272;2023-01-08T02:26:44;4.50;;;3.60;;
830;SDS011;397;50.564;7.272;2023-01-08T02:29:14;4.40;;;3.10;;
830;SDS011;397;50.564;7.272;2023-01-08T02:31:44;3.87;;;3.20;;
830;SDS011;397;50.564;7.272;2023-01-08T02:34:12;3.57;;;2.83;;
830;SDS011;397;50.564;7.272;2023-01-08T02:36:43;2.73;;;2.40;;
830;SDS011;397;50.564;7.272;2023-01-08T02:42:19;3.43;;;3.10;;
830;SDS011;397;50.564;7.272;2023-01-08T02:44:54;3.90;;;2.50;;
830;SDS011;397;50.564;7.272;2023-01-08T02:47:26;5.57;;;3.00;;
830;SDS011;397;50.564;7.272;2023-01-08T02:50:00;3.13;;;2.40;;
830;SDS011;397;50.564;7.272;2023-01-08T02:52:39;3.90;;;2.23;;
830;SDS011;397;50.564;7.272;2023-01-08T02:55:08;3.60;;;2.90;;
830;SDS011;397;50.564;7.272;2023-01-08T02:57:36;3.93;;;2.67;;
830;SDS011;397;50.564;7.272;2023-01-08T03:00:05;5.20;;;2.27;;
830;SDS011;397;50.564;7.272;2023-01-08T03:02:33;3.53;;;2.20;;
830;SDS011;397;50.564;7.272;2023-01-08T03:05:08;2.40;;;1.93;;
830;SDS011;397;50.564;7.272;2023-01-08T03:07:36;2.93;;;1.90;;
830;SDS011;397;50.564;7.272;2023-01-08T03:10:04;3.93;;;2.40;;
830;SDS011;397;50.564;7.272;2023-01-08T03:15:05;3.57;;;2.30;;
830;SDS011;397;50.564;7.272;2023-01-08T03:17:38;2.50;;;1.50;;
830;SDS011;397;50.564;7.272;2023-01-08T03:20:06;2.57;;;1.97;;
830;SDS011;397;50.564;7.272;2023-01-08T03:22:41;3.40;;;1.83;;
830;SDS011;397;50.564;7.272;2023-01-08T03:25:12;2.90;;;1.70;;
830;SDS011;397;50.564;7.272;2023-01-08T03:27:42;2.63;;;1.70;;
830;SDS011;397;50.564;7.272;2023-01-08T03:30:11;2.40;;;1.70;;
830;SDS011;397;50.564;7.272;2023-01-08T03:32:42;2.40;;;1.80;;
830;SDS011;397;50.564;7.272;2023-01-08T03:35:12;2.47;;;1.63;;
830;SDS011;397;50.564;7.272;2023-01-08T03:37:44;2.30;;;1.80;;
830;SDS011;397;50.564;7.272;2023-01-08T03:40:18;2.00;;;1.30;;
830;SDS011;397;50.564;7.272;2023-01-08T03:42:47;2.67;;;1.70;;
830;SDS011;397;50.564;7.272;2023-01-08T03:45:15;3.07;;;1.60;;
830;SDS011;397;50.564;7.272;2023-01-08T03:47:42;2.20;;;1.77;;
830;SDS011;397;50.564;7.272;2023-01-08T03:50:13;2.00;;;1.30;;
830;SDS011;397;50.564;7.272;2023-01-08T03:52:41;2.60;;;1.73;;
830;SDS011;397;50.564;7.272;2023-01-08T03:55:09;2.47;;;1.50;;
830;SDS011;397;50.564;7.272;2023-01-08T03:57:37;2.53;;;1.67;;
830;SDS011;397;50.564;7.272;2023-01-08T04:00:04;2.83;;;1.20;;
830;SDS011;397;50.564;7.272;2023-01-08T04:02:33;2.47;;;1.57;;
830;SDS011;397;50.564;7.272;2023-01-08T04:05:00;2.97;;;1.80;;
830;SDS011;397;50.564;7.272;2023-01-08T04:07:27;2.00;;;1.63;;
830;SDS011;397;50.564;7.272;2023-01-08T04:09:55;2.57;;;1.50;;
830;SDS011;397;50.564;7.272;2023-01-08T04:12:23;3.20;;;1.60;;
830;SDS011;397;50.564;7.272;2023-01-08T04:14:50;2.30;;;1.30;;
830;SDS011;397;50.564;7.272;2023-01-08T04:17:18;2.00;;;1.10;;
830;SDS011;397;50.564;7.272;2023-01-08T04:19:45;2.23;;;1.50;;
830;SDS011;397;50.564;7.272;2023-01-08T04:22:13;2.40;;;1.50;;
830;SDS011;397;50.564;7.272;2023-01-08T04:24:40;2.20;;;1.20;;
830;SDS011;397;50.564;7.272;2023-01-08T04:27:08;1.80;;;1.10;;
830;SDS011;397;50.564;7.272;2023-01-08T04:29:35;2.07;;;1.10;;
830;SDS011;397;50.564;7.272;2023-01-08T04:32:03;2.00;;;0.90;;
830;SDS011;397;50.564;7.272;2023-01-08T04:34:30;1.90;;;1.10;;
830;SDS011;397;50.564;7.272;2023-01-08T04:36:58;2.00;;;1.40;;
830;SDS011;397;50.564;7.272;2023-01-08T04:39:26;2.73;;;1.30;;
830;SDS011;397;50.564;7.272;2023-01-08T04:41:54;2.30;;;1.30;;
830;SDS011;397;50.564;7.272;2023-01-08T04:44:21;2.90;;;1.90;;
830;SDS011;397;50.564;7.272;2023-01-08T04:46:49;2.77;;;1.40;;
830;SDS011;397;50.564;7.272;2023-01-08T04:49:16;2.77;;;1.40;;
830;SDS011;397;50.564;7.272;2023-01-08T04:51:44;2.30;;;1.30;;
830;SDS011;397;50.564;7.272;2023-01-08T04:54:12;1.90;;;1.20;;
830;SDS011;397;50.564;7.272;2023-01-08T04:56:40;2.20;;;1.17;;
830;SDS011;397;50.564;7.272;2023-01-08T04:59:07;2.10;;;1.23;;
830;SDS011;397;50.564;7.272;2023-01-08T05:01:35;2.13;;;1.20;;
830;SDS011;397;50.564;7.272;2023-01-08T05:04:03;2.30;;;1.40;;
830;SDS011;397;50.564;7.272;2023-01-08T05:06:31;2.17;;;1.33;;
830;SDS011;397;50.564;7.272;2023-01-08T05:08:58;2.60;;;1.80;;
830;SDS011;397;50.564;7.272;2023-01-08T05:11:26;2.70;;;2.03;;
830;SDS011;397;50.564;7.272;2023-01-08T05:13:54;2.73;;;1.80;;
830;SDS011;397;50.564;7.272;2023-01-08T05:16:21;2.50;;;1.70;;
830;SDS011;397;50.564;7.272;2023-01-08T05:18:49;2.30;;;1.30;;
830;SDS011;397;50.564;7.272;2023-01-08T05:21:17;2.10;;;1.40;;
830;SDS011;397;50.564;7.272;2023-01-08T05:23:45;3.10;;;1.70;;
830;SDS011;397;50.564;7.272;2023-01-08T05:26:13;2.77;;;1.20;;
830;SDS011;397;50.564;7.272;2023-01-08T05:28:42;1.80;;;1.30;;
830;SDS011;397;50.564;7.272;2023-01-08T05:31:10;2.40;;;1.60;;
830;SDS011;397;50.564;7.272;2023-01-08T05:33:38;2.23;;;1.50;;
830;SDS011;397;50.564;7.272;2023-01-08T05:36:06;3.43;;;1.20;;
830;SDS011;397;50.564;7.272;2023-01-08T05:38:35;2.17;;;1.20;;
830;SDS011;397;50.564;7.272;2023-01-08T05:41:03;2.77;;;1.60;;
830;SDS011;397;50.564;7.272;2023-01-08T05:43:32;2.50;;;1.47;;
830;SDS011;397;50.564;7.272;2023-01-08T05:46:00;2.53;;;1.53;;
830;SDS011;397;50.564;7.272;2023-01-08T05:48:30;2.53;;;1.27;;
830;SDS011;397;50.564;7.272;2023-01-08T05:50:59;2.30;;;1.40;;
830;SDS011;397;50.564;7.272;2023-01-08T05:53:26;2.40;;;1.70;;
830;SDS011;397;50.564;7.272;2023-01-08T05:55:59;3.07;;;1.07;;
830;SDS011;397;50.564;7.272;2023-01-08T05:58:28;3.40;;;1.77;;
830;SDS011;397;50.564;7.272;2023-01-08T06:01:31;2.00;;;1.20;;
830;SDS011;397;50.564;7.272;2023-01-08T06:03:35;2.93;;;1.40;;
830;SDS011;397;50.564;7.272;2023-01-08T06:06:04;3.60;;;1.50;;
830;SDS011;397;50.564;7.272;2023-01-08T06:08:33;1.83;;;1.07;;
830;SDS011;397;50.564;7.272;2023-01-08T06:11:01;3.13;;;1.73;;
830;SDS011;397;50.564;7.272;2023-01-08T06:13:31;3.83;;;1.33;;
830;SDS011;397;50.564;7.272;2023-01-08T06:15:59;3.10;;;1.70;;
830;SDS011;397;50.564;7.272;2023-01-08T06:18:27;2.53;;;1.57;;
830;SDS011;397;50.564;7.272;2023-01-08T06:20:56;1.80;;;1.00;;
830;SDS011;397;50.564;7.272;2023-01-08T06:23:23;2.00;;;1.50;;
830;SDS011;397;50.564;7.272;2023-01-08T06:25:54;2.83;;;1.90;;
830;SDS011;397;50.564;7.272;2023-01-08T06:28:23;5.40;;;1.60;;
830;SDS011;397;50.564;7.272;2023-01-08T06:30:51;5.40;;;1.27;;
830;SDS011;397;50.564;7.272;2023-01-08T06:33:18;1.97;;;1.13;;
830;SDS011;397;50.564;7.272;2023-01-08T06:35:46;2.13;;;1.00;;
830;SDS011;397;50.564;7.272;2023-01-08T06:38:14;1.80;;;1.03;;
830;SDS011;397;50.564;7.272;2023-01-08T06:40:44;1.80;;;1.00;;
830;SDS011;397;50.564;7.272;2023-01-08T06:43:12;2.23;;;1.10;;
830;SDS011;397;50.564;7.272;2023-01-08T06:45:40;2.60;;;1.13;;
830;SDS011;397;50.564;7.272;2023-01-08T06:48:07;2.50;;;1.60;;
830;SDS011;397;50.564;7.272;2023-01-08T06:50:34;3.20;;;1.20;;
830;SDS011;397;50.564;7.272;2023-01-08T06:53:02;2.23;;;1.20;;
830;SDS011;397;50.564;7.272;2023-01-08T06:55:29;2.37;;;1.40;;
830;SDS011;397;50.564;7.272;2023-01-08T06:57:57;4.40;;;1.50;;
830;SDS011;397;50.564;7.272;2023-01-08T07:00:25;1.80;;;0.90;;
830;SDS011;397;50.564;7.272;2023-01-08T07:02:53;2.60;;;1.23;;
830;SDS011;397;50.564;7.272;2023-01-08T07:05:21;2.73;;;1.70;;
830;SDS011;397;50.564;7.272;2023-01-08T07:07:49;2.37;;;1.00;;
830;SDS011;397;50.564;7.272;2023-01-08T07:10:17;2.07;;;1.10;;
830;SDS011;397;50.564;7.272;2023-01-08T07:12:44;2.00;;;1.10;;
830;SDS011;397;50.564;7.272;2023-01-08T07:15:12;2.23;;;1.30;;
830;SDS011;397;50.564;7.272;2023-01-08T07:17:40;1.90;;;1.20;;
830;SDS011;397;50.564;7.272;2023-01-08T07:20:08;3.70;;;1.33;;
830;SDS011;397;50.564;7.272;2023-01-08T07:22:36;2.30;;;1.47;;
830;SDS011;397;50.564;7.272;2023-01-08T07:25:04;3.53;;;1.80;;
830;SDS011;397;50.564;7.272;2023-01-08T07:27:32;2.87;;;1.50;;
830;SDS011;397;50.564;7.272;2023-01-08T07:29:59;2.40;;;1.33;;
830;SDS011;397;50.564;7.272;2023-01-08T07:32:27;2.10;;;1.20;;
830;SDS011;397;50.564;7.272;2023-01-08T07:34:54;2.73;;;1.37;;
830;SDS011;397;50.564;7.272;2023-01-08T07:37:24;2.43;;;1.50;;
830;SDS011;397;50.564;7.272;2023-01-08T07:39:52;1.80;;;1.10;;
830;SDS011;397;50.564;7.272;2023-01-08T07:42:19;1.90;;;1.00;;
830;SDS011;397;50.564;7.272;2023-01-08T07:44:47;2.40;;;1.43;;
830;SDS011;397;50.564;7.272;2023-01-08T07:47:14;2.63;;;1.10;;
830;SDS011;397;50.564;7.272;2023-01-08T07:49:42;2.33;;;1.17;;
830;SDS011;397;50.564;7.272;2023-01-08T07:52:09;1.93;;;1.10;;
830;SDS011;397;50.564;7.272;2023-01-08T07:54:37;2.80;;;1.50;;
830;SDS011;397;50.564;7.272;2023-01-08T07:57:04;5.20;;;2.17;;
830;SDS011;397;50.564;7.272;2023-01-08T07:59:32;3.07;;;2.57;;
830;SDS011;397;50.564;7.272;2023-01-08T08:01:59;2.60;;;2.00;;
830;SDS011;397;50.564;7.272;2023-01-08T08:04:27;3.10;;;1.77;;
830;SDS011;397;50.564;7.272;2023-01-08T08:06:54;1.90;;;1.10;;
830;SDS011;397;50.564;7.272;2023-01-08T08:09:22;4.47;;;2.23;;
830;SDS011;397;50.564;7.272;2023-01-08T08:11:49;2.67;;;1.47;;
830;SDS011;397;50.564;7.272;2023-01-08T08:14:17;3.63;;;1.67;;
830;SDS011;397;50.564;7.272;2023-01-08T08:16:44;3.27;;;1.40;;
830;SDS011;397;50.564;7.272;2023-01-08T08:19:12;2.43;;;1.33;;
830;SDS011;397;50.564;7.272;2023-01-08T08:21:40;2.43;;;1.40;;
830;SDS011;397;50.564;7.272;2023-01-08T08:24:08;2.60;;;1.77;;
830;SDS011;397;50.564;7.272;2023-01-08T08:26:35;5.13;;;1.23;;
830;SDS011;397;50.564;7.272;2023-01-08T08:29:03;2.27;;;1.27;;
830;SDS011;397;50.564;7.272;2023-01-08T08:31:30;2.37;;;1.27;;
830;SDS011;397;50.564;7.272;2023-01-08T08:33:58;2.20;;;1.40;;
830;SDS011;397;50.564;7.272;2023-01-08T08:36:28;2.07;;;1.10;;
830;SDS011;397;50.564;7.272;2023-01-08T08:38:56;2.10;;;1.30;;
830;SDS011;397;50.564;7.272;2023-01-08T08:41:24;2.77;;;1.27;;
830;SDS011;397;50.564;7.272;2023-01-08T08:43:51;2.40;;;1.30;;
830;SDS011;397;50.564;7.272;2023-01-08T08:46:19;2.87;;;2.27;;
830;SDS011;397;50.564;7.272;2023-01-08T08:48:46;2.53;;;1.73;;
830;SDS011;397;50.564;7.272;2023-01-08T08:51:14;3.33;;;2.00;;
830;SDS011;397;50.564;7.272;2023-01-08T08:53:41;2.90;;;2.13;;
830;SDS011;397;50.564;7.272;2023-01-08T08:56:09;2.80;;;2.07;;
830;SDS011;397;50.564;7.272;2023-01-08T08:58:36;3.03;;;2.23;;
830;SDS011;397;50.564;7.272;2023-01-08T09:01:05;3.70;;;2.73;;
830;SDS011;397;50.564;7.272;2023-01-08T09:03:33;3.70;;;1.80;;
830;SDS011;397;50.564;7.272;2023-01-08T09:06:01;2.90;;;1.97;;
830;SDS011;397;50.564;7.272;2023-01-08T09:08:28;3.90;;;2.43;;
830;SDS011;397;50.564;7.272;2023-01-08T09:10:56;3.30;;;2.53;;
830;SDS011;397;50.564;7.272;2023-01-08T09:13:23;3.77;;;2.50;;
830;SDS011;397;50.564;7.272;2023-01-08T09:15:51;4.93;;;3.10;;
830;SDS011;397;50.564;7.272;2023-01-08T09:18:18;3.20;;;2.20;;
830;SDS011;397;50.564;7.272;2023-01-08T09:20:46;3.60;;;2.50;;
830;SDS011;397;50.564;7.272;2023-01-08T09:23:13;3.60;;;2.40;;
830;SDS011;397;50.564;7.272;2023-01-08T09:25:41;3.00;;;2.27;;
830;SDS011;397;50.564;7.272;2023-01-08T09:28:09;2.70;;;1.93;;
830;SDS011;397;50.564;7.272;2023-01-08T09:30:38;3.40;;;2.33;;
830;SDS011;397;50.564;7.272;2023-01-08T09:33:06;3.60;;;2.67;;
830;SDS011;397;50.564;7.272;2023-01-08T09:35:54;2.90;;;2.20;;
830;SDS011;397;50.564;7.272;2023-01-08T09:38:22;4.53;;;3.13;;
830;SDS011;397;50.564;7.272;2023-01-08T09:41:06;4.33;;;2.93;;
830;SDS011;397;50.564;7.272;2023-01-08T09:43:35;5.57;;;3.27;;
830;SDS011;397;50.564;7.272;2023-01-08T09:46:05;3.77;;;2.87;;
830;SDS011;397;50.564;7.272;2023-01-08T09:48:35;3.80;;;2.93;;
830;SDS011;397;50.564;7.272;2023-01-08T09:51:06;4.20;;;2.83;;
830;SDS011;397;50.564;7.272;2023-01-08T09:53:37;2.77;;;2.20;;
830;SDS011;397;50.564;7.272;2023-01-08T09:56:09;5.73;;;1.60;;
830;SDS011;397;50.564;7.272;2023-01-08T09:58:39;2.73;;;1.60;;
830;SDS011;397;50.564;7.272;2023-01-08T10:01:21;2.07;;;1.50;;
830;SDS011;397;50.564;7.272;2023-01-08T10:03:52;3.00;;;1.30;;
830;SDS011;397;50.564;7.272;2023-01-08T10:06:25;2.53;;;1.53;;
830;SDS011;397;50.564;7.272;2023-01-08T10:08:52;2.10;;;1.30;;
830;SDS011;397;50.564;7.272;2023-01-08T10:11:20;5.57;;;1.37;;
830;SDS011;397;50.564;7.272;2023-01-08T10:13:51;3.13;;;1.80;;
830;SDS011;397;50.564;7.272;2023-01-08T10:16:34;3.10;;;2.17;;
830;SDS011;397;50.564;7.272;2023-01-08T10:19:03;2.40;;;1.60;;
830;SDS011;397;50.564;7.272;2023-01-08T10:21:32;3.07;;;1.30;;
830;SDS011;397;50.564;7.272;2023-01-08T10:24:04;2.10;;;1.23;;
830;SDS011;397;50.564;7.272;2023-01-08T10:26:33;2.50;;;1.20;;
830;SDS011;397;50.564;7.272;2023-01-08T10:29:16;2.70;;;1.50;;
830;SDS011;397;50.564;7.272;2023-01-08T10:31:49;3.90;;;1.17;;
830;SDS011;397;50.564;7.272;2023-01-08T10:34:30;3.33;;;1.50;;
830;SDS011;397;50.564;7.272;2023-01-08T10:37:00;3.43;;;2.13;;
830;SDS011;397;50.564;7.272;2023-01-08T10:39:29;3.30;;;1.87;;
830;SDS011;397;50.564;7.272;2023-01-08T10:42:02;3.70;;;1.30;;
830;SDS011;397;50.564;7.272;2023-01-08T10:44:28;2.43;;;1.07;;
830;SDS011;397;50.564;7.272;2023-01-08T10:46:57;2.33;;;1.27;;
830;SDS011;397;50.564;7.272;2023-01-08T10:49:34;3.07;;;1.40;;
830;SDS011;397;50.564;7.272;2023-01-08T10:52:04;2.27;;;1.07;;
830;SDS011;397;50.564;7.272;2023-01-08T10:54:37;3.40;;;0.87;;
830;SDS011;397;50.564;7.272;2023-01-08T10:57:28;3.00;;;0.93;;
830;SDS011;397;50.564;7.272;2023-01-08T10:59:48;1.90;;;1.00;;
830;SDS011;397;50.564;7.272;2023-01-08T11:02:24;2.63;;;1.10;;
830;SDS011;397;50.564;7.272;2023-01-08T11:04:49;2.93;;;1.10;;
830;SDS011;397;50.564;7.272;2023-01-08T11:07:18;2.53;;;1.60;;
830;SDS011;397;50.564;7.272;2023-01-08T11:09:48;2.73;;;1.17;;
830;SDS011;397;50.564;7.272;2023-01-08T11:15:00;2.40;;;1.13;;
830;SDS011;397;50.564;7.272;2023-01-08T11:17:30;3.10;;;0.97;;
830;SDS011;397;50.564;7.272;2023-01-08T11:20:06;2.27;;;1.07;;
830;SDS011;397;50.564;7.272;2023-01-08T11:22:35;2.07;;;1.07;;
830;SDS011;397;50.564;7.272;2023-01-08T11:25:04;2.30;;;1.10;;
830;SDS011;397;50.564;7.272;2023-01-08T11:27:34;2.20;;;1.23;;
830;SDS011;397;50.564;7.272;2023-01-08T11:30:16;3.07;;;1.33;;
830;SDS011;397;50.564;7.272;2023-01-08T11:33:01;3.03;;;1.43;;
830;SDS011;397;50.564;7.272;2023-01-08T11:35:37;1.80;;;1.03;;
830;SDS011;397;50.564;7.272;2023-01-08T11:38:12;4.70;;;1.40;;
830;SDS011;397;50.564;7.272;2023-01-08T11:40:52;2.00;;;1.20;;
830;SDS011;397;50.564;7.272;2023-01-08T11:43:45;2.87;;;1.43;;
830;SDS011;397;50.564;7.272;2023-01-08T11:52:08;2.17;;;0.80;;
830;SDS011;397;50.564;7.272;2023-01-08T11:54:43;2.00;;;0.93;;
830;SDS011;397;50.564;7.272;2023-01-08T11:57:25;2.47;;;0.73;;
830;SDS011;397;50.564;7.272;2023-01-08T12:03:01;2.00;;;0.90;;
830;SDS011;397;50.564;7.272;2023-01-08T12:08:11;2.83;;;1.00;;
830;SDS011;397;50.564;7.272;2023-01-08T12:13:29;2.90;;;1.53;;
830;SDS011;397;50.564;7.272;2023-01-08T12:19:06;3.90;;;1.40;;
830;SDS011;397;50.564;7.272;2023-01-08T12:21:34;3.03;;;1.43;;
830;SDS011;397;50.564;7.272;2023-01-08T12:27:32;2.30;;;1.50;;
830;SDS011;397;50.564;7.272;2023-01-08T12:30:02;2.10;;;1.20;;
830;SDS011;397;50.564;7.272;2023-01-08T12:32:31;5.00;;;1.77;;
830;SDS011;397;50.564;7.272;2023-01-08T12:35:03;2.23;;;1.23;;
830;SDS011;397;50.564;7.272;2023-01-08T12:37:47;2.10;;;1.00;;
830;SDS011;397;50.564;7.272;2023-01-08T12:40:22;2.33;;;1.33;;
830;SDS011;397;50.564;7.272;2023-01-08T12:42:54;1.90;;;0.80;;
830;SDS011;397;50.564;7.272;2023-01-08T12:45:29;3.10;;;1.20;;
830;SDS011;397;50.564;7.272;2023-01-08T12:48:09;3.10;;;1.43;;
830;SDS011;397;50.564;7.272;2023-01-08T12:53:55;4.60;;;1.57;;
830;SDS011;397;50.564;7.272;2023-01-08T12:56:32;3.47;;;2.13;;
830;SDS011;397;50.564;7.272;2023-01-08T12:59:08;2.30;;;1.23;;
830;SDS011;397;50.564;7.272;2023-01-08T13:04:50;3.60;;;1.33;;
830;SDS011;397;50.564;7.272;2023-01-08T13:07:21;3.73;;;1.80;;
830;SDS011;397;50.564;7.272;2023-01-08T13:09:59;2.90;;;1.23;;
830;SDS011;397;50.564;7.272;2023-01-08T13:12:33;3.10;;;1.27;;
830;SDS011;397;50.564;7.272;2023-01-08T13:15:04;2.30;;;1.30;;
830;SDS011;397;50.564;7.272;2023-01-08T13:17:33;3.87;;;1.73;;
830;SDS011;397;50.564;7.272;2023-01-08T13:20:06;5.73;;;1.10;;
830;SDS011;397;50.564;7.272;2023-01-08T13:22:34;3.07;;;1.27;;
830;SDS011;397;50.564;7.272;2023-01-08T13:25:06;1.67;;;0.77;;
830;SDS011;397;50.564;7.272;2023-01-08T13:27:36;1.70;;;0.70;;
830;SDS011;397;50.564;7.272;2023-01-08T13:30:28;2.20;;;0.80;;
830;SDS011;397;50.564;7.272;2023-01-08T13:32:51;2.90;;;0.70;;
830;SDS011;397;50.564;7.272;2023-01-08T13:35:20;2.63;;;0.60;;
830;SDS011;397;50.564;7.272;2023-01-08T13:37:50;2.07;;;0.90;;
830;SDS011;397;50.564;7.272;2023-01-08T13:40:35;2.40;;;0.77;;
830;SDS011;397;50.564;7.272;2023-01-08T13:43:12;1.50;;;0.53;;
830;SDS011;397;50.564;7.272;2023-01-08T13:56:44;1.60;;;0.60;;
830;SDS011;397;50.564;7.272;2023-01-08T13:59:37;3.03;;;0.73;;
830;SDS011;397;50.564;7.272;2023-01-08T14:01:54;1.90;;;0.70;;
830;SDS011;397;50.564;7.272;2023-01-08T14:04:22;1.80;;;0.60;;
830;SDS011;397;50.564;7.272;2023-01-08T14:06:50;2.97;;;0.60;;
830;SDS011;397;50.564;7.272;2023-01-08T14:09:23;1.50;;;0.60;;
830;SDS011;397;50.564;7.272;2023-01-08T14:11:49;2.47;;;0.83;;
830;SDS011;397;50.564;7.272;2023-01-08T14:14:21;2.40;;;0.87;;
830;SDS011;397;50.564;7.272;2023-01-08T14:16:51;2.20;;;0.83;;
830;SDS011;397;50.564;7.272;2023-01-08T14:19:20;2.70;;;0.73;;
830;SDS011;397;50.564;7.272;2023-01-08T14:21:53;1.60;;;0.50;;
830;SDS011;397;50.564;7.272;2023-01-08T14:24:23;2.00;;;0.87;;
830;SDS011;397;50.564;7.272;2023-01-08T14:26:55;1.90;;;0.80;;
830;SDS011;397;50.564;7.272;2023-01-08T14:29:26;1.70;;;0.90;;
830;SDS011;397;50.564;7.272;2023-01-08T14:31:58;2.03;;;0.90;;
830;SDS011;397;50.564;7.272;2023-01-08T14:34:28;2.17;;;1.00;;
830;SDS011;397;50.564;7.272;2023-01-08T14:36:57;2.00;;;0.70;;
830;SDS011;397;50.564;7.272;2023-01-08T14:39:32;2.10;;;0.93;;
830;SDS011;397;50.564;7.272;2023-01-08T14:42:41;1.70;;;0.77;;
830;SDS011;397;50.564;7.272;2023-01-08T14:44:55;2.50;;;1.10;;
830;SDS011;397;50.564;7.272;2023-01-08T14:47:29;2.93;;;1.17;;
830;SDS011;397;50.564;7.272;2023-01-08T14:50:05;3.17;;;1.10;;
830;SDS011;397;50.564;7.272;2023-01-08T14:52:38;2.63;;;1.27;;
830;SDS011;397;50.564;7.272;2023-01-08T14:55:05;2.40;;;0.93;;
830;SDS011;397;50.564;7.272;2023-01-08T14:57:35;3.20;;;1.13;;
830;SDS011;397;50.564;7.272;2023-01-08T15:00:02;2.67;;;0.93;;
830;SDS011;397;50.564;7.272;2023-01-08T15:02:31;2.00;;;0.70;;
830;SDS011;397;50.564;7.272;2023-01-08T15:08:19;2.17;;;1.07;;
830;SDS011;397;50.564;7.272;2023-01-08T15:10:58;1.80;;;0.80;;
830;SDS011;397;50.564;7.272;2023-01-08T15:13:32;2.80;;;0.90;;
830;SDS011;397;50.564;7.272;2023-01-08T15:16:08;1.90;;;0.90;;
830;SDS011;397;50.564;7.272;2023-01-08T15:18:40;2.07;;;0.70;;
830;SDS011;397;50.564;7.272;2023-01-08T15:21:16;3.40;;;1.00;;
830;SDS011;397;50.564;7.272;2023-01-08T15:23:47;2.10;;;1.13;;
830;SDS011;397;50.564;7.272;2023-01-08T15:26:19;2.30;;;1.20;;
830;SDS011;397;50.564;7.272;2023-01-08T15:28:57;1.90;;;0.90;;
830;SDS011;397;50.564;7.272;2023-01-08T15:31:30;3.70;;;1.00;;
830;SDS011;397;50.564;7.272;2023-01-08T15:33:59;2.77;;;1.13;;
830;SDS011;397;50.564;7.272;2023-01-08T15:36:27;2.23;;;0.80;;
830;SDS011;397;50.564;7.272;2023-01-08T15:38:54;2.13;;;1.03;;
830;SDS011;397;50.564;7.272;2023-01-08T15:41:22;2.10;;;1.03;;
830;SDS011;397;50.564;7.272;2023-01-08T15:44:08;3.47;;;1.13;;
830;SDS011;397;50.564;7.272;2023-01-08T15:46:39;2.93;;;1.30;;
830;SDS011;397;50.564;7.272;2023-01-08T15:49:07;3.90;;;1.43;;
830;SDS011;397;50.564;7.272;2023-01-08T15:51:36;2.00;;;1.13;;
830;SDS011;397;50.564;7.272;2023-01-08T15:54:06;3.17;;;1.00;;
830;SDS011;397;50.564;7.272;2023-01-08T15:56:38;2.70;;;1.00;;
830;SDS011;397;50.564;7.272;2023-01-08T15:59:06;3.23;;;1.20;;
830;SDS011;397;50.564;7.272;2023-01-08T16:01:34;5.43;;;1.07;;
830;SDS011;397;50.564;7.272;2023-01-08T16:04:01;2.03;;;1.13;;
830;SDS011;397;50.564;7.272;2023-01-08T16:06:29;3.50;;;1.10;;
830;SDS011;397;50.564;7.272;2023-01-08T16:08:57;2.60;;;1.03;;
830;SDS011;397;50.564;7.272;2023-01-08T16:11:26;2.30;;;1.00;;
830;SDS011;397;50.564;7.272;2023-01-08T16:13:53;4.53;;;1.37;;
830;SDS011;397;50.564;7.272;2023-01-08T16:16:21;4.10;;;1.10;;
830;SDS011;397;50.564;7.272;2023-01-08T16:18:48;4.60;;;1.37;;
830;SDS011;397;50.564;7.272;2023-01-08T16:21:17;4.13;;;1.13;;
830;SDS011;397;50.564;7.272;2023-01-08T16:23:44;4.40;;;1.90;;
830;SDS011;397;50.564;7.272;2023-01-08T16:26:13;2.70;;;1.43;;
830;SDS011;397;50.564;7.272;2023-01-08T16:28:41;2.93;;;1.33;;
830;SDS011;397;50.564;7.272;2023-01-08T16:31:09;3.40;;;1.07;;
830;SDS011;397;50.564;7.272;2023-01-08T16:33:36;4.93;;;1.50;;
830;SDS011;397;50.564;7.272;2023-01-08T16:36:05;3.90;;;1.60;;
830;SDS011;397;50.564;7.272;2023-01-08T16:38:34;3.13;;;1.60;;
830;SDS011;397;50.564;7.272;2023-01-08T16:41:03;4.97;;;1.07;;
830;SDS011;397;50.564;7.272;2023-01-08T16:43:31;3.90;;;1.73;;
830;SDS011;397;50.564;7.272;2023-01-08T16:46:01;2.90;;;1.40;;
830;SDS011;397;50.564;7.272;2023-01-08T16:48:29;5.90;;;1.43;;
830;SDS011;397;50.564;7.272;2023-01-08T16:50:58;3.50;;;1.50;;
830;SDS011;397;50.564;7.272;2023-01-08T16:53:27;4.03;;;1.47;;
830;SDS011;397;50.564;7.272;2023-01-08T16:55:57;3.70;;;1.90;;
830;SDS011;397;50.564;7.272;2023-01-08T16:58:27;3.50;;;1.70;;